THY3XG LTAY-LTFM
Flight info
| Callsign | THY3XG |
|---|---|
| Flight time | 0h 45m |
| Altitude | 30000 |
| Route | ATGIT UT30 OTSIX UM855 SISPI |
| Aircraft | B738/M-SDE2E3FGHIRWXY/LB1 |
Departure
| Time | 2026-05-01 14:15 |
|---|---|
| Airport | Çardak Airport (LTAY) |
Arrival
| Time | 2026-05-01 15:00 |
|---|---|
| Airport | İstanbul Airport (LTFM) |
| Time | Latitude | Longitude | Altitude | Speed | Heading |
|---|---|---|---|---|---|
| 2026-05-01 13:54 | 37.77469 | 29.68931 | 2808 ft | 0 kts | 148° |
| 2026-05-01 14:06 | 37.77473 | 29.68928 | 2808 ft | 2 kts | 149° |
| 2026-05-01 14:06 | 37.77486 | 29.68918 | 2808 ft | 2 kts | 148° |
| 2026-05-01 14:07 | 37.77499 | 29.68908 | 2808 ft | 2 kts | 148° |
| 2026-05-01 14:07 | 37.77507 | 29.68901 | 2808 ft | 1 kts | 149° |
| 2026-05-01 14:07 | 37.77518 | 29.68889 | 2808 ft | 2 kts | 109° |
| 2026-05-01 14:08 | 37.77516 | 29.68861 | 2808 ft | 1 kts | 53° |
| 2026-05-01 14:08 | 37.77513 | 29.68856 | 2808 ft | 0 kts | 58° |
| 2026-05-01 14:09 | 37.77520 | 29.68869 | 2808 ft | 3 kts | 60° |
| 2026-05-01 14:10 | 37.77546 | 29.68907 | 2807 ft | 7 kts | 12° |
| 2026-05-01 14:10 | 37.77604 | 29.68882 | 2806 ft | 13 kts | 330° |
| 2026-05-01 14:10 | 37.77704 | 29.68806 | 2805 ft | 20 kts | 328° |
| 2026-05-01 14:10 | 37.77837 | 29.68704 | 2805 ft | 23 kts | 327° |
| 2026-05-01 14:11 | 37.77963 | 29.68610 | 2806 ft | 16 kts | 342° |
| 2026-05-01 14:11 | 37.78120 | 29.68855 | 2803 ft | 27 kts | 59° |
| 2026-05-01 14:11 | 37.78236 | 29.69098 | 2801 ft | 37 kts | 59° |
| 2026-05-01 14:12 | 37.78376 | 29.69394 | 2798 ft | 39 kts | 59° |
| 2026-05-01 14:12 | 37.78518 | 29.69690 | 2795 ft | 39 kts | 59° |
| 2026-05-01 14:12 | 37.78660 | 29.69989 | 2795 ft | 38 kts | 59° |
| 2026-05-01 14:12 | 37.78797 | 29.70277 | 2793 ft | 38 kts | 59° |
| 2026-05-01 14:13 | 37.78936 | 29.70570 | 2790 ft | 38 kts | 59° |
| 2026-05-01 14:13 | 37.79029 | 29.70764 | 2789 ft | 38 kts | 59° |
| 2026-05-01 14:13 | 37.79213 | 29.71150 | 2786 ft | 38 kts | 59° |
| 2026-05-01 14:13 | 37.79328 | 29.71392 | 2786 ft | 20 kts | 60° |
| 2026-05-01 14:14 | 37.79322 | 29.71523 | 2785 ft | 16 kts | 149° |
| 2026-05-01 14:14 | 37.79247 | 29.71569 | 2786 ft | 4 kts | 187° |
| 2026-05-01 14:14 | 37.79220 | 29.71524 | 2786 ft | 7 kts | 240° |
| 2026-05-01 14:14 | 37.79181 | 29.71438 | 2786 ft | 27 kts | 239° |
| 2026-05-01 14:15 | 37.78957 | 29.70966 | 2789 ft | 94 kts | 239° |
| 2026-05-01 14:15 | 37.78514 | 29.70044 | 2796 ft | 149 kts | 239° |
| 2026-05-01 14:15 | 37.77907 | 29.68814 | 3027 ft | 174 kts | 240° |
| 2026-05-01 14:15 | 37.77306 | 29.67521 | 3764 ft | 173 kts | 243° |
| 2026-05-01 14:16 | 37.76712 | 29.66159 | 4169 ft | 183 kts | 242° |
| 2026-05-01 14:16 | 37.76042 | 29.64742 | 4496 ft | 195 kts | 240° |
| 2026-05-01 14:16 | 37.75305 | 29.63231 | 4833 ft | 209 kts | 240° |
| 2026-05-01 14:16 | 37.74685 | 29.61554 | 5383 ft | 213 kts | 259° |
| 2026-05-01 14:17 | 37.74757 | 29.59705 | 5883 ft | 220 kts | 286° |
| 2026-05-01 14:17 | 37.75317 | 29.57847 | 6231 ft | 235 kts | 291° |
| 2026-05-01 14:17 | 37.75928 | 29.55912 | 6837 ft | 239 kts | 289° |
| 2026-05-01 14:17 | 37.76570 | 29.54014 | 7607 ft | 237 kts | 297° |
| 2026-05-01 14:18 | 37.77614 | 29.52389 | 8169 ft | 247 kts | 320° |
| 2026-05-01 14:18 | 37.79136 | 29.51266 | 8634 ft | 260 kts | 330° |
| 2026-05-01 14:18 | 37.80790 | 29.50261 | 9042 ft | 272 kts | 330° |
| 2026-05-01 14:18 | 37.81945 | 29.49543 | 9368 ft | 279 kts | 330° |
| 2026-05-01 14:19 | 37.84419 | 29.48430 | 10259 ft | 289 kts | 346° |
| 2026-05-01 14:19 | 37.86481 | 29.48425 | 10571 ft | 313 kts | 8° |
| 2026-05-01 14:19 | 37.88588 | 29.49472 | 10952 ft | 334 kts | 27° |
| 2026-05-01 14:19 | 37.90612 | 29.51064 | 11291 ft | 350 kts | 30° |
| 2026-05-01 14:20 | 37.92699 | 29.52771 | 11653 ft | 364 kts | 30° |
| 2026-05-01 14:20 | 37.97103 | 29.56349 | 12577 ft | 385 kts | 30° |
| 2026-05-01 14:20 | 37.99387 | 29.58187 | 13293 ft | 388 kts | 29° |
| 2026-05-01 14:21 | 38.01673 | 29.60019 | 13992 ft | 392 kts | 29° |
| 2026-05-01 14:21 | 38.03987 | 29.61873 | 14676 ft | 396 kts | 29° |
| 2026-05-01 14:21 | 38.06334 | 29.63754 | 15270 ft | 403 kts | 28° |
| 2026-05-01 14:22 | 38.11136 | 29.67596 | 16549 ft | 413 kts | 29° |
| 2026-05-01 14:22 | 38.13586 | 29.69566 | 17150 ft | 419 kts | 29° |
| 2026-05-01 14:22 | 38.16051 | 29.71540 | 17764 ft | 423 kts | 28° |
| 2026-05-01 14:22 | 38.18604 | 29.73439 | 18368 ft | 427 kts | 25° |
| 2026-05-01 14:23 | 38.21286 | 29.74958 | 19047 ft | 425 kts | 15° |
| 2026-05-01 14:23 | 38.24081 | 29.76024 | 19640 ft | 426 kts | 9° |
| 2026-05-01 14:23 | 38.26955 | 29.76845 | 20262 ft | 429 kts | 6° |
| 2026-05-01 14:23 | 38.29889 | 29.77554 | 20847 ft | 432 kts | 5° |
| 2026-05-01 14:24 | 38.32824 | 29.78214 | 21445 ft | 436 kts | 5° |
| 2026-05-01 14:24 | 38.35721 | 29.78860 | 21979 ft | 440 kts | 5° |
| 2026-05-01 14:24 | 38.38773 | 29.79550 | 22546 ft | 444 kts | 5° |
| 2026-05-01 14:24 | 38.41850 | 29.80263 | 23101 ft | 448 kts | 5° |
| 2026-05-01 14:25 | 38.44855 | 29.80971 | 23625 ft | 452 kts | 5° |
| 2026-05-01 14:25 | 38.47982 | 29.81721 | 24188 ft | 455 kts | 5° |
| 2026-05-01 14:25 | 38.51074 | 29.82471 | 24704 ft | 458 kts | 5° |
| 2026-05-01 14:25 | 38.54231 | 29.83243 | 25282 ft | 460 kts | 5° |
| 2026-05-01 14:26 | 38.57368 | 29.84016 | 25840 ft | 462 kts | 5° |
| 2026-05-01 14:26 | 38.63736 | 29.85588 | 26954 ft | 465 kts | 4° |
| 2026-05-01 14:26 | 38.66943 | 29.86387 | 27711 ft | 461 kts | 4° |
| 2026-05-01 14:27 | 38.70081 | 29.87172 | 28447 ft | 457 kts | 4° |
| 2026-05-01 14:27 | 38.73171 | 29.87945 | 29083 ft | 454 kts | 3° |
| 2026-05-01 14:27 | 38.76289 | 29.88722 | 29650 ft | 453 kts | 3° |
| 2026-05-01 14:28 | 38.82486 | 29.90259 | 30006 ft | 456 kts | 3° |
| 2026-05-01 14:28 | 38.85596 | 29.91032 | 30006 ft | 453 kts | 3° |
| 2026-05-01 14:28 | 38.91728 | 29.92558 | 30020 ft | 454 kts | 3° |
| 2026-05-01 14:29 | 38.97971 | 29.94111 | 30005 ft | 456 kts | 3° |
| 2026-05-01 14:30 | 39.10345 | 29.97204 | 30015 ft | 457 kts | 3° |
| 2026-05-01 14:31 | 39.19506 | 29.99504 | 30018 ft | 456 kts | 3° |
| 2026-05-01 14:31 | 39.25745 | 30.01080 | 30016 ft | 457 kts | 3° |
| 2026-05-01 14:32 | 39.31981 | 30.02659 | 30021 ft | 455 kts | 3° |
| 2026-05-01 14:32 | 39.38211 | 30.04220 | 30025 ft | 453 kts | 2° |
| 2026-05-01 14:33 | 39.44486 | 30.04795 | 30026 ft | 439 kts | 347° |
| 2026-05-01 14:33 | 39.50419 | 30.03543 | 30032 ft | 431 kts | 339° |
| 2026-05-01 14:34 | 39.56246 | 30.01755 | 30035 ft | 429 kts | 338° |
| 2026-05-01 14:34 | 39.62059 | 29.99915 | 30031 ft | 430 kts | 338° |
| 2026-05-01 14:35 | 39.67897 | 29.98115 | 30031 ft | 432 kts | 338° |
| 2026-05-01 14:35 | 39.73747 | 29.96327 | 30034 ft | 431 kts | 337° |
| 2026-05-01 14:36 | 39.79389 | 29.93869 | 30032 ft | 423 kts | 330° |
| 2026-05-01 14:36 | 39.84790 | 29.90914 | 30041 ft | 420 kts | 328° |
| 2026-05-01 14:37 | 39.90163 | 29.88014 | 29666 ft | 419 kts | 333° |
| 2026-05-01 14:37 | 39.93021 | 29.87121 | 28927 ft | 427 kts | 343° |
| 2026-05-01 14:37 | 39.95985 | 29.86761 | 28287 ft | 423 kts | 349° |
| 2026-05-01 14:37 | 39.98900 | 29.86681 | 28071 ft | 423 kts | 352° |
| 2026-05-01 14:38 | 40.01830 | 29.86511 | 27794 ft | 412 kts | 343° |
| 2026-05-01 14:38 | 40.04503 | 29.85476 | 26977 ft | 393 kts | 326° |
| 2026-05-01 14:38 | 40.06738 | 29.83594 | 25931 ft | 383 kts | 314° |
| 2026-05-01 14:38 | 40.08692 | 29.81299 | 24960 ft | 379 kts | 310° |
| 2026-05-01 14:39 | 40.10589 | 29.78932 | 24091 ft | 375 kts | 310° |
| 2026-05-01 14:39 | 40.12490 | 29.76671 | 23400 ft | 374 kts | 313° |
| 2026-05-01 14:39 | 40.14465 | 29.74487 | 22843 ft | 372 kts | 315° |
| 2026-05-01 14:39 | 40.16475 | 29.72402 | 22351 ft | 368 kts | 316° |
| 2026-05-01 14:40 | 40.18514 | 29.70381 | 21871 ft | 365 kts | 317° |
| 2026-05-01 14:40 | 40.20539 | 29.68431 | 21394 ft | 361 kts | 318° |
| 2026-05-01 14:40 | 40.22558 | 29.66513 | 20918 ft | 357 kts | 319° |
| 2026-05-01 14:40 | 40.24553 | 29.64628 | 20432 ft | 354 kts | 319° |
| 2026-05-01 14:41 | 40.26571 | 29.62722 | 19952 ft | 358 kts | 319° |
| 2026-05-01 14:41 | 40.28592 | 29.60810 | 19453 ft | 360 kts | 319° |
| 2026-05-01 14:41 | 40.30609 | 29.58905 | 18962 ft | 356 kts | 320° |
| 2026-05-01 14:41 | 40.32596 | 29.57029 | 18499 ft | 352 kts | 320° |
| 2026-05-01 14:42 | 40.34562 | 29.55168 | 18016 ft | 349 kts | 320° |
| 2026-05-01 14:42 | 40.36531 | 29.53302 | 17534 ft | 345 kts | 320° |
| 2026-05-01 14:42 | 40.38456 | 29.51476 | 17053 ft | 343 kts | 320° |
| 2026-05-01 14:42 | 40.40390 | 29.49638 | 16564 ft | 340 kts | 320° |
| 2026-05-01 14:43 | 40.42296 | 29.47826 | 16085 ft | 337 kts | 321° |
| 2026-05-01 14:43 | 40.44183 | 29.46033 | 15617 ft | 335 kts | 321° |
| 2026-05-01 14:43 | 40.46055 | 29.44251 | 15139 ft | 332 kts | 321° |
| 2026-05-01 14:43 | 40.47917 | 29.42477 | 14662 ft | 330 kts | 321° |
| 2026-05-01 14:44 | 40.49747 | 29.40734 | 14192 ft | 328 kts | 321° |
| 2026-05-01 14:44 | 40.53434 | 29.37216 | 13273 ft | 323 kts | 322° |
| 2026-05-01 14:44 | 40.55243 | 29.35488 | 12802 ft | 321 kts | 323° |
| 2026-05-01 14:45 | 40.57017 | 29.33793 | 12359 ft | 319 kts | 322° |
| 2026-05-01 14:45 | 40.60578 | 29.30386 | 11290 ft | 320 kts | 323° |
| 2026-05-01 14:45 | 40.62378 | 29.28663 | 10795 ft | 319 kts | 323° |
| 2026-05-01 14:46 | 40.64167 | 29.26949 | 10407 ft | 314 kts | 324° |
| 2026-05-01 14:46 | 40.67565 | 29.23692 | 10145 ft | 289 kts | 324° |
| 2026-05-01 14:46 | 40.69135 | 29.22185 | 10044 ft | 277 kts | 324° |
| 2026-05-01 14:47 | 40.70693 | 29.20688 | 9760 ft | 273 kts | 324° |
| 2026-05-01 14:47 | 40.72214 | 29.19227 | 9382 ft | 272 kts | 325° |
| 2026-05-01 14:47 | 40.73747 | 29.17754 | 9029 ft | 271 kts | 325° |
| 2026-05-01 14:48 | 40.76763 | 29.14852 | 8343 ft | 267 kts | 326° |
| 2026-05-01 14:48 | 40.78243 | 29.13428 | 8006 ft | 265 kts | 326° |
| 2026-05-01 14:48 | 40.81199 | 29.10578 | 7330 ft | 261 kts | 327° |
| 2026-05-01 14:49 | 40.84112 | 29.07769 | 6666 ft | 258 kts | 327° |
| 2026-05-01 14:49 | 40.86982 | 29.04997 | 6018 ft | 255 kts | 328° |
| 2026-05-01 14:50 | 40.88895 | 29.03147 | 5678 ft | 250 kts | 328° |
| 2026-05-01 14:50 | 40.91567 | 28.98586 | 5235 ft | 248 kts | 282° |
| 2026-05-01 14:51 | 40.91718 | 28.96303 | 4911 ft | 251 kts | 277° |
| 2026-05-01 14:51 | 40.91988 | 28.91695 | 4288 ft | 252 kts | 281° |
| 2026-05-01 14:52 | 40.92381 | 28.87120 | 3963 ft | 244 kts | 282° |
| 2026-05-01 14:52 | 40.92578 | 28.84897 | 3969 ft | 245 kts | 282° |
| 2026-05-01 14:52 | 40.93097 | 28.80475 | 3962 ft | 237 kts | 296° |
| 2026-05-01 14:53 | 40.93925 | 28.78746 | 3967 ft | 214 kts | 328° |
| 2026-05-01 14:53 | 40.95173 | 28.77733 | 3979 ft | 209 kts | 340° |
| 2026-05-01 14:53 | 40.96463 | 28.76905 | 3970 ft | 205 kts | 345° |
| 2026-05-01 14:53 | 40.97821 | 28.76402 | 3973 ft | 201 kts | 356° |
| 2026-05-01 14:54 | 40.99218 | 28.76223 | 3970 ft | 199 kts | 2° |
| 2026-05-01 14:54 | 41.00591 | 28.76162 | 3969 ft | 199 kts | 3° |
| 2026-05-01 14:54 | 41.01987 | 28.76129 | 3969 ft | 199 kts | 4° |
| 2026-05-01 14:54 | 41.03345 | 28.76100 | 3974 ft | 188 kts | 4° |
| 2026-05-01 14:55 | 41.04601 | 28.76073 | 3970 ft | 177 kts | 5° |
| 2026-05-01 14:55 | 41.05844 | 28.76055 | 3973 ft | 178 kts | 5° |
| 2026-05-01 14:55 | 41.07071 | 28.76034 | 3972 ft | 177 kts | 5° |
| 2026-05-01 14:55 | 41.08320 | 28.76011 | 3935 ft | 179 kts | 5° |
| 2026-05-01 14:56 | 41.09562 | 28.75989 | 3712 ft | 180 kts | 5° |
| 2026-05-01 14:56 | 41.10809 | 28.75964 | 3459 ft | 179 kts | 5° |
| 2026-05-01 14:56 | 41.12063 | 28.75939 | 3201 ft | 177 kts | 5° |
| 2026-05-01 14:56 | 41.13290 | 28.75915 | 2979 ft | 174 kts | 5° |
| 2026-05-01 14:57 | 41.14498 | 28.75895 | 2699 ft | 174 kts | 5° |
| 2026-05-01 14:57 | 41.16863 | 28.75851 | 2224 ft | 165 kts | 5° |
| 2026-05-01 14:57 | 41.17961 | 28.75824 | 2006 ft | 151 kts | 6° |
| 2026-05-01 14:58 | 41.18965 | 28.75805 | 1805 ft | 137 kts | 6° |
| 2026-05-01 14:58 | 41.19884 | 28.75790 | 1621 ft | 129 kts | 7° |
| 2026-05-01 14:58 | 41.20757 | 28.75779 | 1438 ft | 123 kts | 7° |
| 2026-05-01 14:58 | 41.21627 | 28.75760 | 1290 ft | 126 kts | 6° |
| 2026-05-01 14:59 | 41.22504 | 28.75736 | 1105 ft | 128 kts | 6° |
| 2026-05-01 14:59 | 41.23394 | 28.75710 | 955 ft | 128 kts | 7° |
| 2026-05-01 14:59 | 41.24284 | 28.75723 | 722 ft | 127 kts | 6° |
| 2026-05-01 14:59 | 41.25178 | 28.75661 | 589 ft | 129 kts | 5° |
| 2026-05-01 15:00 | 41.26971 | 28.75639 | 348 ft | 123 kts | 5° |
| 2026-05-01 15:00 | 41.27720 | 28.75655 | 334 ft | 82 kts | 359° |
| 2026-05-01 15:00 | 41.28131 | 28.75635 | 334 ft | 39 kts | 352° |
| 2026-05-01 15:01 | 41.28348 | 28.75536 | 334 ft | 28 kts | 330° |
| 2026-05-01 15:01 | 41.28432 | 28.75441 | 334 ft | 12 kts | 288° |
| 2026-05-01 15:01 | 41.28397 | 28.75353 | 334 ft | 11 kts | 201° |
| 2026-05-01 15:01 | 41.28318 | 28.75345 | 334 ft | 11 kts | 180° |
| 2026-05-01 15:02 | 41.28243 | 28.75347 | 334 ft | 10 kts | 179° |
| 2026-05-01 15:02 | 41.28217 | 28.75348 | 334 ft | 10 kts | 179° |
| 2026-05-01 15:02 | 41.28095 | 28.75349 | 334 ft | 10 kts | 180° |
| 2026-05-01 15:02 | 41.28022 | 28.75350 | 334 ft | 11 kts | 179° |
| 2026-05-01 15:03 | 41.27897 | 28.75354 | 334 ft | 20 kts | 179° |
| 2026-05-01 15:03 | 41.27744 | 28.75356 | 334 ft | 24 kts | 179° |
| 2026-05-01 15:03 | 41.27577 | 28.75359 | 334 ft | 23 kts | 180° |
| 2026-05-01 15:03 | 41.27417 | 28.75362 | 334 ft | 22 kts | 179° |
| 2026-05-01 15:04 | 41.27263 | 28.75365 | 334 ft | 21 kts | 179° |
| 2026-05-01 15:04 | 41.27132 | 28.75367 | 334 ft | 13 kts | 179° |
| 2026-05-01 15:04 | 41.27061 | 28.75320 | 334 ft | 11 kts | 248° |
| 2026-05-01 15:04 | 41.27054 | 28.75209 | 334 ft | 12 kts | 269° |
| 2026-05-01 15:05 | 41.26998 | 28.75147 | 334 ft | 11 kts | 185° |
| 2026-05-01 15:05 | 41.26901 | 28.75147 | 334 ft | 17 kts | 179° |
| 2026-05-01 15:05 | 41.26780 | 28.75149 | 334 ft | 17 kts | 179° |
| 2026-05-01 15:05 | 41.26666 | 28.75150 | 334 ft | 16 kts | 184° |
| 2026-05-01 15:06 | 41.26559 | 28.75116 | 334 ft | 15 kts | 197° |
| 2026-05-01 15:06 | 41.26456 | 28.75074 | 334 ft | 15 kts | 197° |
| 2026-05-01 15:06 | 41.26358 | 28.75035 | 334 ft | 14 kts | 197° |
| 2026-05-01 15:06 | 41.26260 | 28.74995 | 334 ft | 14 kts | 197° |
| 2026-05-01 15:07 | 41.26187 | 28.74984 | 334 ft | 5 kts | 175° |
| 2026-05-01 15:07 | 41.26153 | 28.74960 | 334 ft | 5 kts | 241° |
| 2026-05-01 15:07 | 41.26136 | 28.74920 | 334 ft | 3 kts | 246° |
| 2026-05-01 15:07 | 41.26131 | 28.74902 | 334 ft | 2 kts | 249° |
| 2026-05-01 15:08 | 41.26124 | 28.74875 | 334 ft | 2 kts | 251° |
| 2026-05-01 15:08 | 41.26122 | 28.74869 | 334 ft | 1 kts | 251° |
| 2026-05-01 15:08 | 41.26121 | 28.74864 | 334 ft | 0 kts | 251° |